sensor_id;sensor_type;location;lat;lon;timestamp;P1;durP1;ratioP1;P2;durP2;ratioP2
84840;SDS011;75088;53.114;18.040;2024-01-15T00:00:54;10.00;;;6.80;;
84840;SDS011;75088;53.114;18.040;2024-01-15T00:02:27;7.80;;;5.40;;
84840;SDS011;75088;53.114;18.040;2024-01-15T00:03:34;6.50;;;5.30;;
84840;SDS011;75088;53.114;18.040;2024-01-15T00:04:41;7.00;;;5.90;;
84840;SDS011;75088;53.114;18.040;2024-01-15T00:05:48;7.40;;;5.50;;
84840;SDS011;75088;53.114;18.040;2024-01-15T00:06:54;8.40;;;6.00;;
84840;SDS011;75088;53.114;18.040;2024-01-15T00:08:01;7.60;;;6.30;;
84840;SDS011;75088;53.114;18.040;2024-01-15T00:09:09;9.00;;;6.20;;
84840;SDS011;75088;53.114;18.040;2024-01-15T00:10:16;8.30;;;6.00;;
84840;SDS011;75088;53.114;18.040;2024-01-15T00:11:23;10.60;;;6.50;;
84840;SDS011;75088;53.114;18.040;2024-01-15T00:12:29;8.80;;;5.70;;
84840;SDS011;75088;53.114;18.040;2024-01-15T00:13:36;9.00;;;6.40;;
84840;SDS011;75088;53.114;18.040;2024-01-15T00:14:43;7.90;;;6.40;;
84840;SDS011;75088;53.114;18.040;2024-01-15T00:15:50;8.50;;;6.40;;
84840;SDS011;75088;53.114;18.040;2024-01-15T00:16:57;8.30;;;6.80;;
84840;SDS011;75088;53.114;18.040;2024-01-15T00:18:04;9.00;;;6.30;;
84840;SDS011;75088;53.114;18.040;2024-01-15T00:19:11;9.40;;;6.60;;
84840;SDS011;75088;53.114;18.040;2024-01-15T00:20:18;8.90;;;6.10;;
84840;SDS011;75088;53.114;18.040;2024-01-15T00:21:25;10.30;;;7.10;;
84840;SDS011;75088;53.114;18.040;2024-01-15T00:22:32;9.50;;;6.60;;
84840;SDS011;75088;53.114;18.040;2024-01-15T00:23:40;13.10;;;7.30;;
84840;SDS011;75088;53.114;18.040;2024-01-15T00:24:49;8.80;;;6.50;;
84840;SDS011;75088;53.114;18.040;2024-01-15T00:25:56;10.60;;;7.70;;
84840;SDS011;75088;53.114;18.040;2024-01-15T00:27:03;9.80;;;6.80;;
84840;SDS011;75088;53.114;18.040;2024-01-15T00:28:11;9.00;;;6.30;;
84840;SDS011;75088;53.114;18.040;2024-01-15T00:29:18;10.40;;;7.60;;
84840;SDS011;75088;53.114;18.040;2024-01-15T00:30:25;10.00;;;7.30;;
84840;SDS011;75088;53.114;18.040;2024-01-15T00:31:31;9.10;;;6.70;;
84840;SDS011;75088;53.114;18.040;2024-01-15T00:32:39;9.80;;;6.60;;
84840;SDS011;75088;53.114;18.040;2024-01-15T00:33:46;9.60;;;6.90;;
84840;SDS011;75088;53.114;18.040;2024-01-15T00:34:53;9.60;;;7.10;;
84840;SDS011;75088;53.114;18.040;2024-01-15T00:36:00;9.50;;;7.40;;
84840;SDS011;75088;53.114;18.040;2024-01-15T00:37:07;10.20;;;7.50;;
84840;SDS011;75088;53.114;18.040;2024-01-15T00:38:14;10.20;;;7.40;;
84840;SDS011;75088;53.114;18.040;2024-01-15T00:39:21;9.90;;;7.70;;
84840;SDS011;75088;53.114;18.040;2024-01-15T00:40:28;11.80;;;7.60;;
84840;SDS011;75088;53.114;18.040;2024-01-15T00:41:35;11.60;;;8.00;;
84840;SDS011;75088;53.114;18.040;2024-01-15T00:42:42;10.50;;;7.30;;
84840;SDS011;75088;53.114;18.040;2024-01-15T00:43:48;9.90;;;7.50;;
84840;SDS011;75088;53.114;18.040;2024-01-15T00:44:55;9.20;;;7.00;;
84840;SDS011;75088;53.114;18.040;2024-01-15T00:46:03;9.20;;;6.30;;
84840;SDS011;75088;53.114;18.040;2024-01-15T00:47:10;11.10;;;6.70;;
84840;SDS011;75088;53.114;18.040;2024-01-15T00:48:17;11.20;;;7.70;;
84840;SDS011;75088;53.114;18.040;2024-01-15T00:49:24;10.10;;;6.60;;
84840;SDS011;75088;53.114;18.040;2024-01-15T00:50:32;10.00;;;7.50;;
84840;SDS011;75088;53.114;18.040;2024-01-15T00:51:39;9.50;;;6.80;;
84840;SDS011;75088;53.114;18.040;2024-01-15T00:52:47;9.10;;;6.90;;
84840;SDS011;75088;53.114;18.040;2024-01-15T00:53:53;8.90;;;7.50;;
84840;SDS011;75088;53.114;18.040;2024-01-15T00:55:01;8.90;;;6.30;;
84840;SDS011;75088;53.114;18.040;2024-01-15T00:56:08;10.20;;;6.00;;
84840;SDS011;75088;53.114;18.040;2024-01-15T00:57:15;10.00;;;6.80;;
84840;SDS011;75088;53.114;18.040;2024-01-15T00:58:23;8.80;;;6.60;;
84840;SDS011;75088;53.114;18.040;2024-01-15T00:59:30;8.40;;;5.90;;
84840;SDS011;75088;53.114;18.040;2024-01-15T01:00:37;8.70;;;6.30;;
84840;SDS011;75088;53.114;18.040;2024-01-15T01:01:45;8.00;;;6.60;;
84840;SDS011;75088;53.114;18.040;2024-01-15T01:02:52;8.60;;;6.40;;
84840;SDS011;75088;53.114;18.040;2024-01-15T01:03:59;9.50;;;7.20;;
84840;SDS011;75088;53.114;18.040;2024-01-15T01:05:06;9.50;;;6.90;;
84840;SDS011;75088;53.114;18.040;2024-01-15T01:06:13;8.90;;;6.70;;
84840;SDS011;75088;53.114;18.040;2024-01-15T01:07:21;9.00;;;7.00;;
84840;SDS011;75088;53.114;18.040;2024-01-15T01:08:27;10.10;;;7.20;;
84840;SDS011;75088;53.114;18.040;2024-01-15T01:09:35;8.90;;;6.60;;
84840;SDS011;75088;53.114;18.040;2024-01-15T01:10:42;8.70;;;6.30;;
84840;SDS011;75088;53.114;18.040;2024-01-15T01:11:49;8.80;;;6.70;;
84840;SDS011;75088;53.114;18.040;2024-01-15T01:12:56;9.30;;;6.60;;
84840;SDS011;75088;53.114;18.040;2024-01-15T01:14:03;8.20;;;6.20;;
84840;SDS011;75088;53.114;18.040;2024-01-15T01:15:10;8.90;;;7.10;;
84840;SDS011;75088;53.114;18.040;2024-01-15T01:16:17;8.60;;;6.10;;
84840;SDS011;75088;53.114;18.040;2024-01-15T01:17:24;9.90;;;6.90;;
84840;SDS011;75088;53.114;18.040;2024-01-15T01:18:32;9.50;;;6.80;;
84840;SDS011;75088;53.114;18.040;2024-01-15T01:19:39;8.50;;;6.10;;
84840;SDS011;75088;53.114;18.040;2024-01-15T01:20:46;8.20;;;6.00;;
84840;SDS011;75088;53.114;18.040;2024-01-15T01:21:52;9.50;;;6.50;;
84840;SDS011;75088;53.114;18.040;2024-01-15T01:22:59;8.50;;;6.50;;
84840;SDS011;75088;53.114;18.040;2024-01-15T01:24:07;9.40;;;6.40;;
84840;SDS011;75088;53.114;18.040;2024-01-15T01:25:14;8.20;;;5.80;;
84840;SDS011;75088;53.114;18.040;2024-01-15T01:26:21;9.20;;;6.80;;
84840;SDS011;75088;53.114;18.040;2024-01-15T01:27:28;8.00;;;6.00;;
84840;SDS011;75088;53.114;18.040;2024-01-15T01:28:35;9.20;;;6.60;;
84840;SDS011;75088;53.114;18.040;2024-01-15T01:29:42;8.50;;;6.10;;
84840;SDS011;75088;53.114;18.040;2024-01-15T01:30:49;9.10;;;7.10;;
84840;SDS011;75088;53.114;18.040;2024-01-15T01:31:56;7.90;;;6.00;;
84840;SDS011;75088;53.114;18.040;2024-01-15T01:33:03;8.20;;;6.30;;
84840;SDS011;75088;53.114;18.040;2024-01-15T01:34:10;7.90;;;6.30;;
84840;SDS011;75088;53.114;18.040;2024-01-15T01:35:19;7.90;;;6.40;;
84840;SDS011;75088;53.114;18.040;2024-01-15T01:36:26;8.60;;;6.00;;
84840;SDS011;75088;53.114;18.040;2024-01-15T01:37:33;8.40;;;5.70;;
84840;SDS011;75088;53.114;18.040;2024-01-15T01:38:41;10.00;;;6.20;;
84840;SDS011;75088;53.114;18.040;2024-01-15T01:39:48;8.30;;;6.20;;
84840;SDS011;75088;53.114;18.040;2024-01-15T01:40:55;9.20;;;7.00;;
84840;SDS011;75088;53.114;18.040;2024-01-15T01:42:02;9.00;;;6.30;;
84840;SDS011;75088;53.114;18.040;2024-01-15T01:43:10;7.50;;;5.10;;
84840;SDS011;75088;53.114;18.040;2024-01-15T01:44:17;9.00;;;6.00;;
84840;SDS011;75088;53.114;18.040;2024-01-15T01:45:23;9.00;;;6.10;;
84840;SDS011;75088;53.114;18.040;2024-01-15T01:46:30;7.30;;;5.60;;
84840;SDS011;75088;53.114;18.040;2024-01-15T01:47:43;7.40;;;5.70;;
84840;SDS011;75088;53.114;18.040;2024-01-15T01:48:50;6.90;;;5.40;;
84840;SDS011;75088;53.114;18.040;2024-01-15T01:49:57;7.10;;;5.00;;
84840;SDS011;75088;53.114;18.040;2024-01-15T01:51:05;7.00;;;6.00;;
84840;SDS011;75088;53.114;18.040;2024-01-15T01:52:12;7.50;;;5.80;;
84840;SDS011;75088;53.114;18.040;2024-01-15T01:53:20;8.00;;;5.60;;
84840;SDS011;75088;53.114;18.040;2024-01-15T01:54:29;7.90;;;6.50;;
84840;SDS011;75088;53.114;18.040;2024-01-15T01:55:37;7.50;;;5.70;;
84840;SDS011;75088;53.114;18.040;2024-01-15T01:56:45;8.10;;;6.50;;
84840;SDS011;75088;53.114;18.040;2024-01-15T01:57:54;8.00;;;6.60;;
84840;SDS011;75088;53.114;18.040;2024-01-15T01:59:02;9.20;;;6.30;;
84840;SDS011;75088;53.114;18.040;2024-01-15T02:00:11;8.20;;;6.00;;
84840;SDS011;75088;53.114;18.040;2024-01-15T02:01:20;7.50;;;5.50;;
84840;SDS011;75088;53.114;18.040;2024-01-15T02:02:27;7.80;;;5.30;;
84840;SDS011;75088;53.114;18.040;2024-01-15T02:03:34;8.80;;;5.70;;
84840;SDS011;75088;53.114;18.040;2024-01-15T02:04:42;9.10;;;6.40;;
84840;SDS011;75088;53.114;18.040;2024-01-15T02:05:49;7.50;;;5.90;;
84840;SDS011;75088;53.114;18.040;2024-01-15T02:06:57;8.20;;;6.60;;
84840;SDS011;75088;53.114;18.040;2024-01-15T02:08:06;9.00;;;6.70;;
84840;SDS011;75088;53.114;18.040;2024-01-15T02:09:13;8.10;;;5.80;;
84840;SDS011;75088;53.114;18.040;2024-01-15T02:10:20;10.30;;;6.50;;
84840;SDS011;75088;53.114;18.040;2024-01-15T02:11:27;8.30;;;6.30;;
84840;SDS011;75088;53.114;18.040;2024-01-15T02:12:35;8.60;;;6.20;;
84840;SDS011;75088;53.114;18.040;2024-01-15T02:13:42;8.40;;;6.20;;
84840;SDS011;75088;53.114;18.040;2024-01-15T02:14:49;9.70;;;6.10;;
84840;SDS011;75088;53.114;18.040;2024-01-15T02:15:56;9.60;;;6.60;;
84840;SDS011;75088;53.114;18.040;2024-01-15T02:17:03;7.70;;;6.80;;
84840;SDS011;75088;53.114;18.040;2024-01-15T02:18:10;9.00;;;6.70;;
84840;SDS011;75088;53.114;18.040;2024-01-15T02:19:17;7.90;;;5.80;;
84840;SDS011;75088;53.114;18.040;2024-01-15T02:20:24;8.80;;;6.10;;
84840;SDS011;75088;53.114;18.040;2024-01-15T02:21:33;7.90;;;5.80;;
84840;SDS011;75088;53.114;18.040;2024-01-15T02:22:40;10.10;;;6.70;;
84840;SDS011;75088;53.114;18.040;2024-01-15T02:23:47;9.20;;;6.20;;
84840;SDS011;75088;53.114;18.040;2024-01-15T02:24:54;9.20;;;6.50;;
84840;SDS011;75088;53.114;18.040;2024-01-15T02:26:01;9.30;;;6.50;;
84840;SDS011;75088;53.114;18.040;2024-01-15T02:27:09;8.60;;;6.10;;
84840;SDS011;75088;53.114;18.040;2024-01-15T02:28:17;8.80;;;6.40;;
84840;SDS011;75088;53.114;18.040;2024-01-15T02:29:24;9.50;;;6.50;;
84840;SDS011;75088;53.114;18.040;2024-01-15T02:30:31;9.10;;;6.40;;
84840;SDS011;75088;53.114;18.040;2024-01-15T02:31:39;8.10;;;6.40;;
84840;SDS011;75088;53.114;18.040;2024-01-15T02:32:47;8.70;;;6.80;;
84840;SDS011;75088;53.114;18.040;2024-01-15T02:33:54;8.70;;;6.60;;
84840;SDS011;75088;53.114;18.040;2024-01-15T02:35:01;8.50;;;6.60;;
84840;SDS011;75088;53.114;18.040;2024-01-15T02:36:08;8.60;;;6.30;;
84840;SDS011;75088;53.114;18.040;2024-01-15T02:37:15;9.40;;;6.60;;
84840;SDS011;75088;53.114;18.040;2024-01-15T02:38:22;8.60;;;5.80;;
84840;SDS011;75088;53.114;18.040;2024-01-15T02:39:31;9.10;;;6.30;;
84840;SDS011;75088;53.114;18.040;2024-01-15T02:40:38;8.40;;;5.80;;
84840;SDS011;75088;53.114;18.040;2024-01-15T02:41:45;8.50;;;7.20;;
84840;SDS011;75088;53.114;18.040;2024-01-15T02:42:52;9.40;;;6.40;;
84840;SDS011;75088;53.114;18.040;2024-01-15T02:43:59;8.70;;;6.60;;
84840;SDS011;75088;53.114;18.040;2024-01-15T02:45:06;8.80;;;6.70;;
84840;SDS011;75088;53.114;18.040;2024-01-15T02:46:14;8.50;;;5.80;;
84840;SDS011;75088;53.114;18.040;2024-01-15T02:47:21;9.20;;;6.60;;
84840;SDS011;75088;53.114;18.040;2024-01-15T02:48:27;9.20;;;6.30;;
84840;SDS011;75088;53.114;18.040;2024-01-15T02:49:34;8.70;;;7.00;;
84840;SDS011;75088;53.114;18.040;2024-01-15T02:50:41;8.60;;;6.30;;
84840;SDS011;75088;53.114;18.040;2024-01-15T02:51:48;8.00;;;5.60;;
84840;SDS011;75088;53.114;18.040;2024-01-15T02:52:55;8.30;;;6.20;;
84840;SDS011;75088;53.114;18.040;2024-01-15T02:54:03;9.00;;;5.80;;
84840;SDS011;75088;53.114;18.040;2024-01-15T02:55:10;8.00;;;5.90;;
84840;SDS011;75088;53.114;18.040;2024-01-15T02:56:17;8.20;;;5.90;;
84840;SDS011;75088;53.114;18.040;2024-01-15T02:57:23;10.90;;;8.00;;
84840;SDS011;75088;53.114;18.040;2024-01-15T02:58:31;8.60;;;6.60;;
84840;SDS011;75088;53.114;18.040;2024-01-15T02:59:38;8.50;;;5.70;;
84840;SDS011;75088;53.114;18.040;2024-01-15T03:00:45;8.70;;;6.50;;
84840;SDS011;75088;53.114;18.040;2024-01-15T03:01:52;9.20;;;6.40;;
84840;SDS011;75088;53.114;18.040;2024-01-15T03:02:59;9.80;;;6.20;;
84840;SDS011;75088;53.114;18.040;2024-01-15T03:04:06;10.00;;;6.40;;
84840;SDS011;75088;53.114;18.040;2024-01-15T03:05:13;8.60;;;6.20;;
84840;SDS011;75088;53.114;18.040;2024-01-15T03:06:20;7.80;;;5.50;;
84840;SDS011;75088;53.114;18.040;2024-01-15T03:07:28;9.10;;;6.10;;
84840;SDS011;75088;53.114;18.040;2024-01-15T03:08:35;9.50;;;6.80;;
84840;SDS011;75088;53.114;18.040;2024-01-15T03:09:42;10.20;;;7.90;;
84840;SDS011;75088;53.114;18.040;2024-01-15T03:10:49;8.90;;;6.50;;
84840;SDS011;75088;53.114;18.040;2024-01-15T03:11:56;9.60;;;6.60;;
84840;SDS011;75088;53.114;18.040;2024-01-15T03:13:03;8.50;;;6.40;;
84840;SDS011;75088;53.114;18.040;2024-01-15T03:14:10;9.20;;;6.90;;
84840;SDS011;75088;53.114;18.040;2024-01-15T03:15:17;8.40;;;6.30;;
84840;SDS011;75088;53.114;18.040;2024-01-15T03:16:24;10.00;;;7.60;;
84840;SDS011;75088;53.114;18.040;2024-01-15T03:17:31;9.40;;;6.50;;
84840;SDS011;75088;53.114;18.040;2024-01-15T03:18:38;10.60;;;7.00;;
84840;SDS011;75088;53.114;18.040;2024-01-15T03:19:45;9.90;;;6.90;;
84840;SDS011;75088;53.114;18.040;2024-01-15T03:20:53;9.80;;;6.90;;
84840;SDS011;75088;53.114;18.040;2024-01-15T03:22:00;9.50;;;6.80;;
84840;SDS011;75088;53.114;18.040;2024-01-15T03:23:07;9.80;;;7.30;;
84840;SDS011;75088;53.114;18.040;2024-01-15T03:24:14;9.40;;;6.30;;
84840;SDS011;75088;53.114;18.040;2024-01-15T03:25:21;9.40;;;6.50;;
84840;SDS011;75088;53.114;18.040;2024-01-15T03:26:28;11.60;;;6.90;;
84840;SDS011;75088;53.114;18.040;2024-01-15T03:27:35;10.40;;;7.00;;
84840;SDS011;75088;53.114;18.040;2024-01-15T03:28:42;11.70;;;7.50;;
84840;SDS011;75088;53.114;18.040;2024-01-15T03:29:49;7.30;;;5.40;;
84840;SDS011;75088;53.114;18.040;2024-01-15T03:30:56;9.60;;;6.70;;
84840;SDS011;75088;53.114;18.040;2024-01-15T03:32:03;8.60;;;6.20;;
84840;SDS011;75088;53.114;18.040;2024-01-15T03:33:10;10.60;;;6.70;;
84840;SDS011;75088;53.114;18.040;2024-01-15T03:34:17;8.00;;;5.40;;
84840;SDS011;75088;53.114;18.040;2024-01-15T03:35:26;9.70;;;7.20;;
84840;SDS011;75088;53.114;18.040;2024-01-15T03:36:34;8.60;;;6.20;;
84840;SDS011;75088;53.114;18.040;2024-01-15T03:37:42;9.90;;;6.80;;
84840;SDS011;75088;53.114;18.040;2024-01-15T03:38:49;10.50;;;6.70;;
84840;SDS011;75088;53.114;18.040;2024-01-15T03:39:56;10.10;;;7.20;;
84840;SDS011;75088;53.114;18.040;2024-01-15T03:41:03;9.90;;;6.80;;
84840;SDS011;75088;53.114;18.040;2024-01-15T03:42:10;10.70;;;6.90;;
84840;SDS011;75088;53.114;18.040;2024-01-15T03:43:18;8.30;;;5.70;;
84840;SDS011;75088;53.114;18.040;2024-01-15T03:44:25;8.70;;;6.20;;
84840;SDS011;75088;53.114;18.040;2024-01-15T03:45:32;12.10;;;7.40;;
84840;SDS011;75088;53.114;18.040;2024-01-15T03:46:39;10.50;;;7.90;;
84840;SDS011;75088;53.114;18.040;2024-01-15T03:47:46;10.70;;;6.90;;
84840;SDS011;75088;53.114;18.040;2024-01-15T03:48:53;8.90;;;6.90;;
84840;SDS011;75088;53.114;18.040;2024-01-15T03:50:00;9.00;;;6.70;;
84840;SDS011;75088;53.114;18.040;2024-01-15T03:51:07;9.80;;;6.20;;
84840;SDS011;75088;53.114;18.040;2024-01-15T03:52:14;12.00;;;7.70;;
84840;SDS011;75088;53.114;18.040;2024-01-15T03:53:21;10.50;;;7.10;;
84840;SDS011;75088;53.114;18.040;2024-01-15T03:54:28;13.00;;;8.20;;
84840;SDS011;75088;53.114;18.040;2024-01-15T03:55:35;9.90;;;6.90;;
84840;SDS011;75088;53.114;18.040;2024-01-15T03:56:42;9.80;;;6.60;;
84840;SDS011;75088;53.114;18.040;2024-01-15T03:57:49;10.80;;;6.70;;
84840;SDS011;75088;53.114;18.040;2024-01-15T03:58:56;8.20;;;5.50;;
84840;SDS011;75088;53.114;18.040;2024-01-15T04:00:03;9.00;;;6.50;;
84840;SDS011;75088;53.114;18.040;2024-01-15T04:01:12;10.00;;;7.10;;
84840;SDS011;75088;53.114;18.040;2024-01-15T04:02:19;8.70;;;5.90;;
84840;SDS011;75088;53.114;18.040;2024-01-15T04:03:26;9.10;;;6.90;;
84840;SDS011;75088;53.114;18.040;2024-01-15T04:04:33;8.90;;;6.40;;
84840;SDS011;75088;53.114;18.040;2024-01-15T04:05:39;9.80;;;6.20;;
84840;SDS011;75088;53.114;18.040;2024-01-15T04:06:46;9.40;;;6.70;;
84840;SDS011;75088;53.114;18.040;2024-01-15T04:07:54;10.60;;;7.30;;
84840;SDS011;75088;53.114;18.040;2024-01-15T04:09:01;9.90;;;6.80;;
84840;SDS011;75088;53.114;18.040;2024-01-15T04:10:08;8.90;;;6.10;;
84840;SDS011;75088;53.114;18.040;2024-01-15T04:11:15;11.40;;;7.50;;
84840;SDS011;75088;53.114;18.040;2024-01-15T04:12:22;10.00;;;6.50;;
84840;SDS011;75088;53.114;18.040;2024-01-15T04:13:30;10.60;;;6.60;;
84840;SDS011;75088;53.114;18.040;2024-01-15T04:14:38;10.10;;;6.80;;
84840;SDS011;75088;53.114;18.040;2024-01-15T04:15:45;9.10;;;5.80;;
84840;SDS011;75088;53.114;18.040;2024-01-15T04:16:52;11.30;;;6.90;;
84840;SDS011;75088;53.114;18.040;2024-01-15T04:17:59;9.80;;;6.50;;
84840;SDS011;75088;53.114;18.040;2024-01-15T04:19:07;8.20;;;6.20;;
84840;SDS011;75088;53.114;18.040;2024-01-15T04:20:14;10.30;;;8.00;;
84840;SDS011;75088;53.114;18.040;2024-01-15T04:21:21;7.80;;;5.60;;
84840;SDS011;75088;53.114;18.040;2024-01-15T04:22:28;9.60;;;6.60;;
84840;SDS011;75088;53.114;18.040;2024-01-15T04:23:35;9.10;;;5.50;;
84840;SDS011;75088;53.114;18.040;2024-01-15T04:24:42;9.70;;;6.60;;
84840;SDS011;75088;53.114;18.040;2024-01-15T04:25:49;8.40;;;5.50;;
84840;SDS011;75088;53.114;18.040;2024-01-15T04:26:56;7.30;;;4.50;;
84840;SDS011;75088;53.114;18.040;2024-01-15T04:28:03;7.00;;;4.20;;
84840;SDS011;75088;53.114;18.040;2024-01-15T04:29:13;6.20;;;4.30;;
84840;SDS011;75088;53.114;18.040;2024-01-15T04:30:20;6.70;;;4.80;;
84840;SDS011;75088;53.114;18.040;2024-01-15T04:31:27;6.50;;;4.60;;
84840;SDS011;75088;53.114;18.040;2024-01-15T04:32:34;6.60;;;4.70;;
84840;SDS011;75088;53.114;18.040;2024-01-15T04:33:41;6.20;;;3.90;;
84840;SDS011;75088;53.114;18.040;2024-01-15T04:34:48;5.70;;;4.30;;
84840;SDS011;75088;53.114;18.040;2024-01-15T04:35:55;6.30;;;4.20;;
84840;SDS011;75088;53.114;18.040;2024-01-15T04:37:06;5.50;;;3.80;;
84840;SDS011;75088;53.114;18.040;2024-01-15T04:38:13;5.00;;;3.20;;
84840;SDS011;75088;53.114;18.040;2024-01-15T04:39:22;6.30;;;4.00;;
84840;SDS011;75088;53.114;18.040;2024-01-15T04:40:31;6.30;;;4.70;;
84840;SDS011;75088;53.114;18.040;2024-01-15T04:41:38;6.20;;;3.80;;
84840;SDS011;75088;53.114;18.040;2024-01-15T04:42:45;6.40;;;3.80;;
84840;SDS011;75088;53.114;18.040;2024-01-15T04:43:52;6.50;;;4.40;;
84840;SDS011;75088;53.114;18.040;2024-01-15T04:44:59;6.40;;;4.30;;
84840;SDS011;75088;53.114;18.040;2024-01-15T04:46:08;6.10;;;3.80;;
84840;SDS011;75088;53.114;18.040;2024-01-15T04:47:15;7.00;;;5.30;;
84840;SDS011;75088;53.114;18.040;2024-01-15T04:48:23;6.40;;;4.00;;
84840;SDS011;75088;53.114;18.040;2024-01-15T04:49:30;7.00;;;4.70;;
84840;SDS011;75088;53.114;18.040;2024-01-15T04:50:36;7.30;;;4.90;;
84840;SDS011;75088;53.114;18.040;2024-01-15T04:51:43;7.30;;;5.40;;
84840;SDS011;75088;53.114;18.040;2024-01-15T04:52:50;7.20;;;5.20;;
84840;SDS011;75088;53.114;18.040;2024-01-15T04:53:57;6.40;;;4.70;;
84840;SDS011;75088;53.114;18.040;2024-01-15T04:55:04;6.90;;;4.90;;
84840;SDS011;75088;53.114;18.040;2024-01-15T04:56:12;8.00;;;4.70;;
84840;SDS011;75088;53.114;18.040;2024-01-15T04:57:19;6.30;;;4.70;;
84840;SDS011;75088;53.114;18.040;2024-01-15T04:58:25;7.70;;;4.90;;
84840;SDS011;75088;53.114;18.040;2024-01-15T04:59:33;8.70;;;5.50;;
84840;SDS011;75088;53.114;18.040;2024-01-15T05:00:40;7.00;;;5.30;;
84840;SDS011;75088;53.114;18.040;2024-01-15T05:01:47;7.30;;;4.60;;
84840;SDS011;75088;53.114;18.040;2024-01-15T05:02:54;6.80;;;4.20;;
84840;SDS011;75088;53.114;18.040;2024-01-15T05:04:01;6.50;;;4.20;;
84840;SDS011;75088;53.114;18.040;2024-01-15T05:05:08;7.40;;;4.40;;
84840;SDS011;75088;53.114;18.040;2024-01-15T05:06:15;5.80;;;4.00;;
84840;SDS011;75088;53.114;18.040;2024-01-15T05:07:22;6.50;;;3.90;;
84840;SDS011;75088;53.114;18.040;2024-01-15T05:08:30;4.40;;;3.40;;
84840;SDS011;75088;53.114;18.040;2024-01-15T05:09:37;5.10;;;3.50;;
84840;SDS011;75088;53.114;18.040;2024-01-15T05:10:44;5.20;;;3.30;;
84840;SDS011;75088;53.114;18.040;2024-01-15T05:11:51;6.00;;;3.80;;
84840;SDS011;75088;53.114;18.040;2024-01-15T05:12:57;6.20;;;3.20;;
84840;SDS011;75088;53.114;18.040;2024-01-15T05:14:04;5.90;;;3.50;;
84840;SDS011;75088;53.114;18.040;2024-01-15T05:15:11;5.60;;;3.90;;
84840;SDS011;75088;53.114;18.040;2024-01-15T05:16:18;6.30;;;2.80;;
84840;SDS011;75088;53.114;18.040;2024-01-15T05:17:26;4.80;;;2.80;;
84840;SDS011;75088;53.114;18.040;2024-01-15T05:18:32;5.40;;;2.50;;
84840;SDS011;75088;53.114;18.040;2024-01-15T05:19:41;4.70;;;2.40;;
84840;SDS011;75088;53.114;18.040;2024-01-15T05:20:48;5.00;;;2.60;;
84840;SDS011;75088;53.114;18.040;2024-01-15T05:21:56;6.40;;;2.50;;
84840;SDS011;75088;53.114;18.040;2024-01-15T05:23:03;6.10;;;2.70;;
84840;SDS011;75088;53.114;18.040;2024-01-15T05:24:10;4.40;;;2.70;;
84840;SDS011;75088;53.114;18.040;2024-01-15T05:25:17;5.10;;;2.50;;
84840;SDS011;75088;53.114;18.040;2024-01-15T05:26:24;5.00;;;1.90;;
84840;SDS011;75088;53.114;18.040;2024-01-15T05:27:31;5.50;;;2.70;;
84840;SDS011;75088;53.114;18.040;2024-01-15T05:28:38;4.90;;;2.80;;
84840;SDS011;75088;53.114;18.040;2024-01-15T05:29:47;4.10;;;2.30;;
84840;SDS011;75088;53.114;18.040;2024-01-15T05:30:54;5.00;;;2.10;;
84840;SDS011;75088;53.114;18.040;2024-01-15T05:32:01;4.00;;;2.40;;
84840;SDS011;75088;53.114;18.040;2024-01-15T05:33:09;5.70;;;2.80;;
84840;SDS011;75088;53.114;18.040;2024-01-15T05:34:15;4.10;;;2.30;;
84840;SDS011;75088;53.114;18.040;2024-01-15T05:35:22;6.00;;;2.20;;
84840;SDS011;75088;53.114;18.040;2024-01-15T05:36:29;5.50;;;2.30;;
84840;SDS011;75088;53.114;18.040;2024-01-15T05:37:36;6.70;;;2.60;;
84840;SDS011;75088;53.114;18.040;2024-01-15T05:38:43;5.00;;;2.30;;
84840;SDS011;75088;53.114;18.040;2024-01-15T05:39:50;4.50;;;2.30;;
84840;SDS011;75088;53.114;18.040;2024-01-15T05:40:57;4.70;;;1.80;;
84840;SDS011;75088;53.114;18.040;2024-01-15T05:42:04;5.30;;;2.20;;
84840;SDS011;75088;53.114;18.040;2024-01-15T05:43:11;5.20;;;2.10;;
84840;SDS011;75088;53.114;18.040;2024-01-15T05:44:18;5.50;;;2.00;;
84840;SDS011;75088;53.114;18.040;2024-01-15T05:45:25;3.90;;;2.00;;
84840;SDS011;75088;53.114;18.040;2024-01-15T05:46:33;6.00;;;2.30;;
84840;SDS011;75088;53.114;18.040;2024-01-15T05:47:39;11.90;;;5.20;;
84840;SDS011;75088;53.114;18.040;2024-01-15T05:48:48;6.10;;;2.60;;
84840;SDS011;75088;53.114;18.040;2024-01-15T05:49:55;3.60;;;1.70;;
84840;SDS011;75088;53.114;18.040;2024-01-15T05:51:03;4.40;;;2.00;;
84840;SDS011;75088;53.114;18.040;2024-01-15T05:52:10;4.50;;;1.50;;
84840;SDS011;75088;53.114;18.040;2024-01-15T05:53:17;5.80;;;2.70;;
84840;SDS011;75088;53.114;18.040;2024-01-15T05:54:24;5.40;;;2.50;;
84840;SDS011;75088;53.114;18.040;2024-01-15T05:55:31;4.30;;;1.60;;
84840;SDS011;75088;53.114;18.040;2024-01-15T05:56:38;3.10;;;1.60;;
84840;SDS011;75088;53.114;18.040;2024-01-15T05:57:45;5.60;;;2.40;;
84840;SDS011;75088;53.114;18.040;2024-01-15T05:58:52;4.90;;;1.90;;
84840;SDS011;75088;53.114;18.040;2024-01-15T05:59:59;2.80;;;1.80;;
84840;SDS011;75088;53.114;18.040;2024-01-15T06:01:06;3.00;;;1.50;;
84840;SDS011;75088;53.114;18.040;2024-01-15T06:02:13;3.60;;;1.60;;
84840;SDS011;75088;53.114;18.040;2024-01-15T06:03:20;3.50;;;1.30;;
84840;SDS011;75088;53.114;18.040;2024-01-15T06:04:27;4.30;;;1.60;;
84840;SDS011;75088;53.114;18.040;2024-01-15T06:05:34;5.80;;;2.00;;
84840;SDS011;75088;53.114;18.040;2024-01-15T06:06:42;2.80;;;1.50;;
84840;SDS011;75088;53.114;18.040;2024-01-15T06:07:49;3.40;;;1.50;;
84840;SDS011;75088;53.114;18.040;2024-01-15T06:08:56;2.60;;;1.30;;
84840;SDS011;75088;53.114;18.040;2024-01-15T06:10:09;5.30;;;1.80;;
84840;SDS011;75088;53.114;18.040;2024-01-15T06:11:16;4.50;;;2.00;;
84840;SDS011;75088;53.114;18.040;2024-01-15T06:12:23;5.30;;;2.50;;
84840;SDS011;75088;53.114;18.040;2024-01-15T06:13:31;6.10;;;2.50;;
84840;SDS011;75088;53.114;18.040;2024-01-15T06:14:39;3.80;;;2.50;;
84840;SDS011;75088;53.114;18.040;2024-01-15T06:15:46;3.70;;;2.30;;
84840;SDS011;75088;53.114;18.040;2024-01-15T06:16:53;5.20;;;2.70;;
84840;SDS011;75088;53.114;18.040;2024-01-15T06:18:00;3.70;;;2.30;;
84840;SDS011;75088;53.114;18.040;2024-01-15T06:19:07;6.30;;;4.00;;
84840;SDS011;75088;53.114;18.040;2024-01-15T06:20:14;6.40;;;4.00;;
84840;SDS011;75088;53.114;18.040;2024-01-15T06:21:21;5.80;;;3.90;;
84840;SDS011;75088;53.114;18.040;2024-01-15T06:22:29;7.00;;;4.70;;
84840;SDS011;75088;53.114;18.040;2024-01-15T06:23:36;7.20;;;3.20;;
84840;SDS011;75088;53.114;18.040;2024-01-15T06:24:43;5.00;;;2.30;;
84840;SDS011;75088;53.114;18.040;2024-01-15T06:25:50;11.10;;;4.90;;
84840;SDS011;75088;53.114;18.040;2024-01-15T06:26:59;4.50;;;3.10;;
84840;SDS011;75088;53.114;18.040;2024-01-15T06:28:06;5.90;;;4.10;;
84840;SDS011;75088;53.114;18.040;2024-01-15T06:29:13;5.40;;;3.20;;
84840;SDS011;75088;53.114;18.040;2024-01-15T06:30:21;6.90;;;4.90;;
84840;SDS011;75088;53.114;18.040;2024-01-15T06:31:28;8.70;;;5.50;;
84840;SDS011;75088;53.114;18.040;2024-01-15T06:32:35;7.70;;;5.60;;
84840;SDS011;75088;53.114;18.040;2024-01-15T06:33:42;7.80;;;4.00;;
84840;SDS011;75088;53.114;18.040;2024-01-15T06:34:51;6.40;;;3.90;;
84840;SDS011;75088;53.114;18.040;2024-01-15T06:35:58;8.00;;;4.10;;
84840;SDS011;75088;53.114;18.040;2024-01-15T06:37:05;7.40;;;4.80;;
84840;SDS011;75088;53.114;18.040;2024-01-15T06:38:12;7.80;;;5.40;;
84840;SDS011;75088;53.114;18.040;2024-01-15T06:39:19;10.50;;;6.10;;